createdAt,value
2022-10-10T00:00:38.898Z,1004.63
2022-10-10T00:01:38.931Z,1004.61
2022-10-10T00:02:38.888Z,1004.60
2022-10-10T00:03:38.869Z,1004.60
2022-10-10T00:04:38.862Z,1004.59
2022-10-10T00:05:38.834Z,1004.58
2022-10-10T00:06:38.825Z,1004.61
2022-10-10T00:07:38.820Z,1004.53
2022-10-10T00:08:38.813Z,1004.54
2022-10-10T00:09:38.788Z,1004.53
2022-10-10T00:10:38.784Z,1004.58
2022-10-10T00:11:38.759Z,1004.56
2022-10-10T00:12:38.772Z,1004.57
2022-10-10T00:13:38.739Z,1004.55
2022-10-10T00:14:38.724Z,1004.58
2022-10-10T00:15:38.708Z,1004.60
2022-10-10T00:16:38.706Z,1004.54
2022-10-10T00:17:38.688Z,1004.56
2022-10-10T00:18:38.672Z,1004.52
2022-10-10T00:19:38.666Z,1004.55
2022-10-10T00:20:38.653Z,1004.55
2022-10-10T00:21:38.633Z,1004.53
2022-10-10T00:22:38.632Z,1004.56
2022-10-10T00:23:38.719Z,1004.56
2022-10-10T00:24:38.608Z,1004.57
2022-10-10T00:25:38.603Z,1004.57
2022-10-10T00:26:38.586Z,1004.58
2022-10-10T00:27:38.603Z,1004.56
2022-10-10T00:28:39.006Z,1004.55
2022-10-10T00:29:38.586Z,1004.50
2022-10-10T00:30:38.540Z,1004.56
2022-10-10T00:31:38.511Z,1004.50
2022-10-10T00:32:38.498Z,1004.55
2022-10-10T00:33:38.492Z,1004.51
2022-10-10T00:34:38.481Z,1004.51
2022-10-10T00:35:38.461Z,1004.50
2022-10-10T00:36:38.451Z,1004.48
2022-10-10T00:37:38.440Z,1004.47
2022-10-10T00:38:38.422Z,1004.52
2022-10-10T00:39:38.405Z,1004.48
2022-10-10T00:40:38.413Z,1004.40
2022-10-10T00:41:38.382Z,1004.49
2022-10-10T00:42:38.371Z,1004.51
2022-10-10T00:43:38.367Z,1004.57
2022-10-10T00:44:38.351Z,1004.55
2022-10-10T00:45:38.334Z,1004.52
2022-10-10T00:46:38.329Z,1004.50
2022-10-10T00:47:38.306Z,1004.51
2022-10-10T00:48:38.293Z,1004.56
2022-10-10T00:49:38.289Z,1004.51
2022-10-10T00:50:38.272Z,1004.49
2022-10-10T00:51:38.270Z,1004.51
2022-10-10T00:52:38.253Z,1004.55
2022-10-10T00:53:38.238Z,1004.48
2022-10-10T00:54:38.224Z,1004.53
2022-10-10T00:55:38.209Z,1004.48
2022-10-10T00:56:38.202Z,1004.49
2022-10-10T00:57:38.186Z,1004.49
2022-10-10T00:58:38.185Z,1004.43
2022-10-10T00:59:38.156Z,1004.46
2022-10-10T01:00:38.192Z,1004.44
2022-10-10T01:01:38.135Z,1004.44
2022-10-10T01:02:38.122Z,1004.48
2022-10-10T01:03:38.105Z,1004.45
2022-10-10T01:04:41.753Z,1004.43
2022-10-10T01:05:38.089Z,1004.40
2022-10-10T01:06:38.068Z,1004.37
2022-10-10T01:07:38.054Z,1004.39
2022-10-10T01:08:38.054Z,1004.35
2022-10-10T01:09:38.034Z,1004.36
2022-10-10T01:10:38.027Z,1004.37
2022-10-10T01:11:38.015Z,1004.39
2022-10-10T01:12:37.996Z,1004.40
2022-10-10T01:13:37.988Z,1004.35
2022-10-10T01:14:37.970Z,1004.40
2022-10-10T01:15:37.960Z,1004.33
2022-10-10T01:16:37.955Z,1004.36
2022-10-10T01:17:37.933Z,1004.35
2022-10-10T01:18:37.924Z,1004.36
2022-10-10T01:19:37.907Z,1004.36
2022-10-10T01:20:37.897Z,1004.36
2022-10-10T01:21:37.880Z,1004.41
2022-10-10T01:22:37.879Z,1004.35
2022-10-10T01:23:37.864Z,1004.34
2022-10-10T01:24:37.847Z,1004.37
2022-10-10T01:25:37.828Z,1004.39
2022-10-10T01:26:37.817Z,1004.36
2022-10-10T01:27:37.802Z,1004.35
2022-10-10T01:28:37.848Z,1004.33
2022-10-10T01:29:37.787Z,1004.31
2022-10-10T01:30:37.766Z,1004.34
2022-10-10T01:31:37.761Z,1004.29
2022-10-10T01:32:37.747Z,1004.28
2022-10-10T01:33:37.729Z,1004.30
2022-10-10T01:34:37.729Z,1004.29
2022-10-10T01:35:37.707Z,1004.25
2022-10-10T01:36:37.691Z,1004.29
2022-10-10T01:37:37.676Z,1004.28
2022-10-10T01:38:37.668Z,1004.24
2022-10-10T01:39:37.675Z,1004.23
2022-10-10T01:40:37.670Z,1004.20
2022-10-10T01:41:37.630Z,1004.23
2022-10-10T01:42:37.616Z,1004.20
2022-10-10T01:43:37.604Z,1004.23
2022-10-10T01:44:37.590Z,1004.19
2022-10-10T01:45:37.583Z,1004.20
2022-10-10T01:46:37.581Z,1004.20
2022-10-10T01:47:37.587Z,1004.18
2022-10-10T01:48:37.542Z,1004.18
2022-10-10T01:49:37.543Z,1004.16
2022-10-10T01:50:37.522Z,1004.19
2022-10-10T01:51:37.504Z,1004.14
2022-10-10T01:52:37.499Z,1004.10
2022-10-10T01:53:37.477Z,1004.09
2022-10-10T01:54:37.466Z,1004.09
2022-10-10T01:55:37.455Z,1004.09
2022-10-10T01:56:37.441Z,1004.12
2022-10-10T01:57:37.440Z,1004.12
2022-10-10T01:58:37.423Z,1004.06
2022-10-10T01:59:37.402Z,1004.01
2022-10-10T02:00:37.444Z,1004.06
2022-10-10T02:01:37.375Z,1004.00
2022-10-10T02:02:37.397Z,1004.02
2022-10-10T02:03:37.347Z,1003.98
2022-10-10T02:04:37.359Z,1004.00
2022-10-10T02:05:37.328Z,1003.97
2022-10-10T02:06:37.309Z,1003.97
2022-10-10T02:07:37.306Z,1003.97
2022-10-10T02:08:37.284Z,1003.98
2022-10-10T02:09:37.274Z,1003.90
2022-10-10T02:10:37.274Z,1003.97
2022-10-10T02:11:37.253Z,1003.91
2022-10-10T02:12:37.236Z,1003.90
2022-10-10T02:13:37.222Z,1003.99
2022-10-10T02:14:37.223Z,1003.97
2022-10-10T02:15:37.215Z,1003.99
2022-10-10T02:16:37.234Z,1003.95
2022-10-10T02:17:37.201Z,1003.98
2022-10-10T02:18:37.165Z,1003.96
2022-10-10T02:19:37.156Z,1003.96
2022-10-10T02:20:37.143Z,1003.88
2022-10-10T02:21:37.133Z,1003.94
2022-10-10T02:22:37.117Z,1003.91
2022-10-10T02:23:37.101Z,1003.96
2022-10-10T02:24:37.085Z,1003.92
2022-10-10T02:25:37.079Z,1003.92
2022-10-10T02:26:37.060Z,1003.90
2022-10-10T02:27:37.052Z,1003.92
2022-10-10T02:28:37.200Z,1003.93
2022-10-10T02:29:37.018Z,1003.89
2022-10-10T02:30:37.014Z,1003.83
2022-10-10T02:31:36.997Z,1003.89
2022-10-10T02:32:36.982Z,1003.89
2022-10-10T02:33:36.974Z,1003.88
2022-10-10T02:34:36.974Z,1003.86
2022-10-10T02:35:36.947Z,1003.79
2022-10-10T02:36:36.938Z,1003.76
2022-10-10T02:37:36.923Z,1003.81
2022-10-10T02:38:36.907Z,1003.77
2022-10-10T02:39:36.890Z,1003.76
2022-10-10T02:40:36.900Z,1003.83
2022-10-10T02:41:36.874Z,1003.81
2022-10-10T02:42:36.857Z,1003.83
2022-10-10T02:43:36.845Z,1003.80
2022-10-10T02:44:36.831Z,1003.79
2022-10-10T02:45:36.813Z,1003.81
2022-10-10T02:46:36.821Z,1003.75
2022-10-10T02:47:36.792Z,1003.79
2022-10-10T02:48:36.778Z,1003.78
2022-10-10T02:49:36.783Z,1003.79
2022-10-10T02:50:36.754Z,1003.72
2022-10-10T02:51:36.740Z,1003.74
2022-10-10T02:52:36.743Z,1003.72
2022-10-10T02:53:36.715Z,1003.72
2022-10-10T02:54:36.713Z,1003.69
2022-10-10T02:55:36.687Z,1003.65
2022-10-10T02:56:36.681Z,1003.64
2022-10-10T02:57:36.676Z,1003.67
2022-10-10T02:58:36.665Z,1003.70
2022-10-10T02:59:36.646Z,1003.64
2022-10-10T03:00:36.650Z,1003.58
2022-10-10T03:01:36.615Z,1003.62
2022-10-10T03:02:36.607Z,1003.64
2022-10-10T03:03:36.591Z,1003.53
2022-10-10T03:04:36.660Z,1003.61
2022-10-10T03:05:36.564Z,1003.60
2022-10-10T03:06:36.552Z,1003.59
2022-10-10T03:07:36.538Z,1003.59
2022-10-10T03:08:36.528Z,1003.54
2022-10-10T03:09:36.519Z,1003.53
2022-10-10T03:10:36.524Z,1003.52
2022-10-10T03:11:36.485Z,1003.53
2022-10-10T03:12:36.484Z,1003.47
2022-10-10T03:13:36.461Z,1003.52
2022-10-10T03:14:36.451Z,1003.50
2022-10-10T03:15:36.439Z,1003.50
2022-10-10T03:16:36.440Z,1003.52
2022-10-10T03:17:36.412Z,1003.52
2022-10-10T03:18:36.405Z,1003.51
2022-10-10T03:19:36.389Z,1003.51
2022-10-10T03:20:36.389Z,1003.38
2022-10-10T03:21:36.369Z,1003.43
2022-10-10T03:22:36.364Z,1003.44
2022-10-10T03:23:36.337Z,1003.39
2022-10-10T03:24:36.319Z,1003.38
2022-10-10T03:25:36.308Z,1003.44
2022-10-10T03:26:36.295Z,1003.42
2022-10-10T03:27:36.283Z,1003.43
2022-10-10T03:28:36.331Z,1003.40
2022-10-10T03:29:36.257Z,1003.39
2022-10-10T03:30:36.243Z,1003.37
2022-10-10T03:31:36.227Z,1003.41
2022-10-10T03:32:36.218Z,1003.42
2022-10-10T03:33:36.210Z,1003.39
2022-10-10T03:34:36.217Z,1003.39
2022-10-10T03:35:36.184Z,1003.38
2022-10-10T03:36:36.168Z,1003.38
2022-10-10T03:37:36.221Z,1003.38
2022-10-10T03:38:36.145Z,1003.38
2022-10-10T03:39:36.147Z,1003.38
2022-10-10T03:40:36.129Z,1003.37
2022-10-10T03:41:36.110Z,1003.42
2022-10-10T03:42:36.109Z,1003.38
2022-10-10T03:43:36.114Z,1003.37
2022-10-10T03:44:36.101Z,1003.39
2022-10-10T03:45:36.068Z,1003.37
2022-10-10T03:46:36.084Z,1003.41
2022-10-10T03:47:37.011Z,1003.41
2022-10-10T03:48:37.010Z,1003.38
2022-10-10T03:49:36.004Z,1003.36
2022-10-10T03:50:35.998Z,1003.39
2022-10-10T03:51:35.977Z,1003.39
2022-10-10T03:52:36.501Z,1003.38
2022-10-10T03:53:35.963Z,1003.35
2022-10-10T03:54:35.936Z,1003.34
2022-10-10T03:55:35.940Z,1003.38
2022-10-10T03:56:35.917Z,1003.35
2022-10-10T03:57:35.904Z,1003.40
2022-10-10T03:58:35.907Z,1003.39
2022-10-10T03:59:35.914Z,1003.37
2022-10-10T04:00:35.880Z,1003.36
2022-10-10T04:01:35.885Z,1003.38
2022-10-10T04:02:35.852Z,1003.36
2022-10-10T04:03:35.827Z,1003.33
2022-10-10T04:04:35.839Z,1003.34
2022-10-10T04:05:35.812Z,1003.34
2022-10-10T04:06:35.783Z,1003.33
2022-10-10T04:07:35.777Z,1003.34
2022-10-10T04:08:35.766Z,1003.38
2022-10-10T04:09:35.749Z,1003.34
2022-10-10T04:10:35.740Z,1003.31
2022-10-10T04:11:35.722Z,1003.31
2022-10-10T04:12:35.711Z,1003.30
2022-10-10T04:13:35.719Z,1003.30
2022-10-10T04:14:35.687Z,1003.32
2022-10-10T04:15:35.677Z,1003.30
2022-10-10T04:16:35.682Z,1003.29
2022-10-10T04:17:35.651Z,1003.28
2022-10-10T04:18:35.636Z,1003.30
2022-10-10T04:19:35.628Z,1003.23
2022-10-10T04:20:35.608Z,1003.24
2022-10-10T04:21:35.599Z,1003.25
2022-10-10T04:22:35.597Z,1003.25
2022-10-10T04:23:35.601Z,1003.25
2022-10-10T04:24:35.556Z,1003.24
2022-10-10T04:25:35.580Z,1003.24
2022-10-10T04:26:35.534Z,1003.20
2022-10-10T04:27:35.519Z,1003.22
2022-10-10T04:28:35.539Z,1003.23
2022-10-10T04:29:35.509Z,1003.20
2022-10-10T04:30:35.491Z,1003.25
2022-10-10T04:31:35.481Z,1003.26
2022-10-10T04:32:35.454Z,1003.22
2022-10-10T04:33:35.445Z,1003.20
2022-10-10T04:34:35.439Z,1003.20
2022-10-10T04:35:37.251Z,1003.19
2022-10-10T04:36:35.425Z,1003.22
2022-10-10T04:37:35.395Z,1003.17
2022-10-10T04:38:35.382Z,1003.17
2022-10-10T04:39:35.378Z,1003.15
2022-10-10T04:40:35.372Z,1003.18
2022-10-10T04:41:35.355Z,1003.18
2022-10-10T04:42:35.330Z,1003.10
2022-10-10T04:43:35.325Z,1003.14
2022-10-10T04:44:35.341Z,1003.12
2022-10-10T04:45:37.713Z,1003.11
2022-10-10T04:46:35.298Z,1003.10
2022-10-10T04:47:35.276Z,1003.12
2022-10-10T04:48:36.211Z,1003.11
2022-10-10T04:49:36.214Z,1003.14
2022-10-10T04:50:35.353Z,1003.06
2022-10-10T04:51:35.253Z,1003.12
2022-10-10T04:52:35.368Z,1003.14
2022-10-10T04:53:35.185Z,1003.05
2022-10-10T04:54:35.171Z,1003.16
2022-10-10T04:55:35.162Z,1003.11
2022-10-10T04:56:35.157Z,1003.09
2022-10-10T04:57:35.135Z,1003.09
2022-10-10T04:58:35.143Z,1003.07
2022-10-10T04:59:35.115Z,1003.06
2022-10-10T05:00:35.104Z,1003.11
2022-10-10T05:01:35.121Z,1003.12
2022-10-10T05:02:35.077Z,1003.14
2022-10-10T05:03:35.061Z,1003.14
2022-10-10T05:04:35.002Z,1003.12
2022-10-10T05:05:35.039Z,1003.12
2022-10-10T05:06:35.050Z,1003.10
2022-10-10T05:07:35.017Z,1003.12
2022-10-10T05:08:34.958Z,1003.13
2022-10-10T05:09:34.953Z,1003.11
2022-10-10T05:10:34.938Z,1003.11
2022-10-10T05:11:34.968Z,1003.09
2022-10-10T05:12:34.955Z,1003.11
2022-10-10T05:13:34.891Z,1003.11
2022-10-10T05:14:34.878Z,1003.15
2022-10-10T05:15:34.871Z,1003.13
2022-10-10T05:16:34.860Z,1003.14
2022-10-10T05:17:34.869Z,1003.15
2022-10-10T05:18:34.812Z,1003.14
2022-10-10T05:19:34.803Z,1003.18
2022-10-10T05:20:34.797Z,1003.16
2022-10-10T05:21:34.779Z,1003.15
2022-10-10T05:22:34.780Z,1003.15
2022-10-10T05:23:34.759Z,1003.18
2022-10-10T05:24:34.743Z,1003.19
2022-10-10T05:25:34.742Z,1003.17
2022-10-10T05:26:36.054Z,1003.08
2022-10-10T05:27:34.731Z,1003.11
2022-10-10T05:28:34.745Z,1003.14
2022-10-10T05:29:34.678Z,1003.11
2022-10-10T05:30:34.681Z,1003.05
2022-10-10T05:31:34.738Z,1003.16
2022-10-10T05:32:34.645Z,1003.14
2022-10-10T05:33:34.648Z,1003.14
2022-10-10T05:34:34.626Z,1003.18
2022-10-10T05:35:34.608Z,1003.14
2022-10-10T05:36:34.590Z,1003.17
2022-10-10T05:37:34.577Z,1003.17
2022-10-10T05:38:34.566Z,1003.19
2022-10-10T05:39:34.583Z,1003.16
2022-10-10T05:40:34.557Z,1003.13
2022-10-10T05:41:34.531Z,1003.13
2022-10-10T05:42:34.515Z,1003.15
2022-10-10T05:43:34.501Z,1003.13
2022-10-10T05:44:34.490Z,1003.14
2022-10-10T05:45:34.481Z,1003.07
2022-10-10T05:46:34.477Z,1003.17
2022-10-10T05:47:34.459Z,1003.18
2022-10-10T05:48:34.437Z,1003.15
2022-10-10T05:49:34.434Z,1003.15
2022-10-10T05:50:34.422Z,1003.12
2022-10-10T05:51:34.421Z,1003.14
2022-10-10T05:52:34.401Z,1003.09
2022-10-10T05:53:34.375Z,1003.10
2022-10-10T05:54:34.364Z,1003.11
2022-10-10T05:55:34.348Z,1003.08
2022-10-10T05:56:34.340Z,1003.07
2022-10-10T05:57:34.329Z,1003.09
2022-10-10T05:58:34.332Z,1003.11
2022-10-10T05:59:34.331Z,1003.11
2022-10-10T06:00:34.292Z,1003.10
2022-10-10T06:01:34.275Z,1003.12
2022-10-10T06:02:34.292Z,1003.12
2022-10-10T06:03:34.259Z,1003.07
2022-10-10T06:04:34.262Z,1003.09
2022-10-10T06:05:34.228Z,1003.07
2022-10-10T06:06:34.212Z,1003.09
2022-10-10T06:07:59.033Z,1003.03
2022-10-10T06:08:34.193Z,1003.05
2022-10-10T06:09:34.173Z,1003.04
2022-10-10T06:10:34.173Z,1003.03
2022-10-10T06:11:34.175Z,1003.05
2022-10-10T06:12:34.148Z,1003.10
2022-10-10T06:13:34.168Z,1003.12
2022-10-10T06:14:34.113Z,1003.10
2022-10-10T06:15:34.135Z,1003.17
2022-10-10T06:16:34.096Z,1003.16
2022-10-10T06:17:34.071Z,1003.16
2022-10-10T06:18:34.055Z,1003.23
2022-10-10T06:19:34.056Z,1003.08
2022-10-10T06:20:34.035Z,1003.12
2022-10-10T06:21:34.023Z,1003.16
2022-10-10T06:22:34.039Z,1003.16
2022-10-10T06:23:34.008Z,1003.11
2022-10-10T06:24:33.993Z,1003.09
2022-10-10T06:25:41.919Z,1003.10
2022-10-10T06:26:33.973Z,1003.08
2022-10-10T06:27:33.949Z,1003.13
2022-10-10T06:28:34.004Z,1003.16
2022-10-10T06:29:33.914Z,1003.21
2022-10-10T06:30:33.923Z,1003.20
2022-10-10T06:31:33.890Z,1003.27
2022-10-10T06:32:33.892Z,1003.20
2022-10-10T06:33:33.872Z,1003.21
2022-10-10T06:34:33.905Z,1003.20
2022-10-10T06:35:33.843Z,1003.23
2022-10-10T06:36:33.829Z,1003.22
2022-10-10T06:37:33.840Z,1003.27
2022-10-10T06:38:33.939Z,1003.29
2022-10-10T06:39:33.786Z,1003.31
2022-10-10T06:40:33.822Z,1003.32
2022-10-10T06:41:33.761Z,1003.34
2022-10-10T06:42:33.761Z,1003.37
2022-10-10T06:43:33.739Z,1003.37
2022-10-10T06:44:33.725Z,1003.42
2022-10-10T06:45:33.709Z,1003.39
2022-10-10T06:46:33.736Z,1003.34
2022-10-10T06:47:33.692Z,1003.35
2022-10-10T06:48:33.685Z,1003.36
2022-10-10T06:49:33.678Z,1003.33
2022-10-10T06:50:33.658Z,1003.31
2022-10-10T06:51:33.670Z,1003.36
2022-10-10T06:52:33.906Z,1003.34
2022-10-10T06:53:33.698Z,1003.37
2022-10-10T06:54:33.655Z,1003.37
2022-10-10T06:55:33.678Z,1003.42
2022-10-10T06:56:33.602Z,1003.36
2022-10-10T06:57:33.816Z,1003.38
2022-10-10T06:58:33.825Z,1003.35
2022-10-10T06:59:33.563Z,1003.37
2022-10-10T07:00:33.553Z,1003.39
2022-10-10T07:01:33.565Z,1003.33
2022-10-10T07:02:33.516Z,1003.35
2022-10-10T07:03:33.512Z,1003.30
2022-10-10T07:04:33.499Z,1003.31
2022-10-10T07:05:33.488Z,1003.28
2022-10-10T07:06:34.985Z,1003.26
2022-10-10T07:07:33.430Z,1003.24
2022-10-10T07:08:33.421Z,1003.27
2022-10-10T07:09:33.408Z,1003.23
2022-10-10T07:10:33.518Z,1003.24
2022-10-10T07:11:33.382Z,1003.27
2022-10-10T07:12:39.597Z,1003.25
2022-10-10T07:13:33.393Z,1003.23
2022-10-10T07:14:33.365Z,1003.24
2022-10-10T07:15:33.331Z,1003.30
2022-10-10T07:16:33.623Z,1003.23
2022-10-10T07:17:33.315Z,1003.31
2022-10-10T07:18:33.294Z,1003.21
2022-10-10T07:19:33.312Z,1003.19
2022-10-10T07:20:33.289Z,1003.22
2022-10-10T07:21:33.292Z,1003.20
2022-10-10T07:22:33.240Z,1003.19
2022-10-10T07:23:33.245Z,1003.25
2022-10-10T07:24:33.252Z,1003.28
2022-10-10T07:25:33.224Z,1003.19
2022-10-10T07:26:33.343Z,1003.29
2022-10-10T07:27:33.189Z,1003.24
2022-10-10T07:28:34.150Z,1003.30
2022-10-10T07:29:33.185Z,1003.28
2022-10-10T07:30:33.174Z,1003.27
2022-10-10T07:31:33.134Z,1003.35
2022-10-10T07:32:33.145Z,1003.24
2022-10-10T07:33:33.131Z,1003.26
2022-10-10T07:34:33.160Z,1003.33
2022-10-10T07:35:33.090Z,1003.35
2022-10-10T07:36:33.085Z,1003.39
2022-10-10T07:37:33.184Z,1003.33
2022-10-10T07:38:33.036Z,1003.37
2022-10-10T07:39:33.081Z,1003.35
2022-10-10T07:40:33.016Z,1003.31
2022-10-10T07:41:33.012Z,1003.33
2022-10-10T07:42:33.033Z,1003.37
2022-10-10T07:43:33.071Z,1003.35
2022-10-10T07:44:34.688Z,1003.33
2022-10-10T07:45:32.950Z,1003.37
2022-10-10T07:46:32.949Z,1003.32
2022-10-10T07:47:32.919Z,1003.32
2022-10-10T07:48:32.934Z,1003.31
2022-10-10T07:49:32.974Z,1003.38
2022-10-10T07:50:32.884Z,1003.34
2022-10-10T07:51:32.885Z,1003.34
2022-10-10T07:52:32.856Z,1003.39
2022-10-10T07:53:32.844Z,1003.46
2022-10-10T07:54:32.838Z,1003.41
2022-10-10T07:55:32.815Z,1003.37
2022-10-10T07:56:32.798Z,1003.38
2022-10-10T07:57:32.826Z,1003.38
2022-10-10T07:58:32.799Z,1003.42
2022-10-10T07:59:32.777Z,1003.48
2022-10-10T08:00:32.762Z,1003.42
2022-10-10T08:01:32.787Z,1003.38
2022-10-10T08:02:32.751Z,1003.48
2022-10-10T08:03:32.818Z,1003.46
2022-10-10T08:04:32.740Z,1003.46
2022-10-10T08:05:32.717Z,1003.32
2022-10-10T08:06:32.681Z,1003.45
2022-10-10T08:07:32.912Z,1003.39
2022-10-10T08:08:34.516Z,1003.40
2022-10-10T08:09:32.684Z,1003.41
2022-10-10T08:10:32.643Z,1003.47
2022-10-10T08:11:32.621Z,1003.38
2022-10-10T08:12:32.605Z,1003.42
2022-10-10T08:13:32.609Z,1003.45
2022-10-10T08:14:32.811Z,1003.40
2022-10-10T08:15:34.040Z,1003.48
2022-10-10T08:16:32.590Z,1003.48
2022-10-10T08:17:32.716Z,1003.50
2022-10-10T08:18:32.622Z,1003.46
2022-10-10T08:19:32.531Z,1003.49
2022-10-10T08:20:32.512Z,1003.44
2022-10-10T08:21:32.577Z,1003.38
2022-10-10T08:22:32.466Z,1003.47
2022-10-10T08:23:32.466Z,1003.47
2022-10-10T08:24:32.445Z,1003.57
2022-10-10T08:25:32.476Z,1003.47
2022-10-10T08:26:32.423Z,1003.49
2022-10-10T08:27:32.433Z,1003.49
2022-10-10T08:28:32.460Z,1003.52
2022-10-10T08:29:32.388Z,1003.48
2022-10-10T08:30:32.405Z,1003.53
2022-10-10T08:31:32.363Z,1003.41
2022-10-10T08:32:32.357Z,1003.41
2022-10-10T08:33:32.361Z,1003.48
2022-10-10T08:34:32.329Z,1003.41
2022-10-10T08:35:32.320Z,1003.47
2022-10-10T08:36:32.310Z,1003.44
2022-10-10T08:37:36.553Z,1003.41
2022-10-10T08:38:32.263Z,1003.40
2022-10-10T08:39:32.286Z,1003.39
2022-10-10T08:40:32.250Z,1003.45
2022-10-10T08:41:32.240Z,1003.39
2022-10-10T08:42:33.679Z,1003.48
2022-10-10T08:43:32.229Z,1003.48
2022-10-10T08:44:32.194Z,1003.56
2022-10-10T08:45:32.227Z,1003.43
2022-10-10T08:46:32.187Z,1003.44
2022-10-10T08:47:32.150Z,1003.43
2022-10-10T08:48:32.133Z,1003.50
2022-10-10T08:49:32.151Z,1003.44
2022-10-10T08:50:32.146Z,1003.35
2022-10-10T08:51:32.136Z,1003.50
2022-10-10T08:52:32.088Z,1003.51
2022-10-10T08:53:32.098Z,1003.48
2022-10-10T08:54:32.067Z,1003.53
2022-10-10T08:55:32.062Z,1003.55
2022-10-10T08:56:32.073Z,1003.63
2022-10-10T08:57:32.047Z,1003.62
2022-10-10T08:58:32.020Z,1003.63
2022-10-10T08:59:32.011Z,1003.61
2022-10-10T09:00:32.035Z,1003.48
2022-10-10T09:01:32.073Z,1003.53
2022-10-10T09:03:05.823Z,1003.60
2022-10-10T09:03:32.096Z,1003.49
2022-10-10T09:04:31.947Z,1003.52
2022-10-10T09:05:31.937Z,1003.53
2022-10-10T09:06:31.929Z,1003.64
2022-10-10T09:07:31.891Z,1003.58
2022-10-10T09:08:32.556Z,1003.54
2022-10-10T09:09:31.944Z,1003.58
2022-10-10T09:10:31.853Z,1003.58
2022-10-10T09:11:31.871Z,1003.61
2022-10-10T09:12:31.895Z,1003.59
2022-10-10T09:13:31.835Z,1003.51
2022-10-10T09:14:31.847Z,1003.53
2022-10-10T09:15:31.812Z,1003.61
2022-10-10T09:16:31.787Z,1003.55
2022-10-10T09:17:31.766Z,1003.61
2022-10-10T09:18:31.761Z,1003.68
2022-10-10T09:19:31.747Z,1003.64
2022-10-10T09:20:31.739Z,1003.66
2022-10-10T09:21:31.759Z,1003.74
2022-10-10T09:22:31.710Z,1003.71
2022-10-10T09:23:31.683Z,1003.61
2022-10-10T09:24:31.922Z,1003.54
2022-10-10T09:25:31.704Z,1003.68
2022-10-10T09:26:31.648Z,1003.60
2022-10-10T09:27:31.683Z,1003.59
2022-10-10T09:28:31.721Z,1003.75
2022-10-10T09:29:31.619Z,1003.55
2022-10-10T09:30:31.624Z,1003.65
2022-10-10T09:31:31.587Z,1003.60
2022-10-10T09:32:31.594Z,1003.54
2022-10-10T09:33:31.639Z,1003.63
2022-10-10T09:34:31.585Z,1003.62
2022-10-10T09:35:32.527Z,1003.56
2022-10-10T09:36:31.575Z,1003.55
2022-10-10T09:37:46.340Z,1003.56
2022-10-10T09:38:31.514Z,1003.58
2022-10-10T09:39:31.508Z,1003.66
2022-10-10T09:40:32.043Z,1003.58
2022-10-10T09:41:31.474Z,1003.64
2022-10-10T09:42:31.438Z,1003.54
2022-10-10T09:43:31.443Z,1003.63
2022-10-10T09:44:31.609Z,1003.61
2022-10-10T09:45:32.451Z,1003.53
2022-10-10T09:46:31.414Z,1003.59
2022-10-10T09:47:31.389Z,1003.67
2022-10-10T09:48:31.387Z,1003.61
2022-10-10T09:49:31.369Z,1003.63
2022-10-10T09:50:31.950Z,1003.57
2022-10-10T09:51:31.345Z,1003.76
2022-10-10T09:52:31.324Z,1003.70
2022-10-10T09:53:31.307Z,1003.64
2022-10-10T09:54:31.310Z,1003.64
2022-10-10T09:55:32.050Z,1003.78
2022-10-10T09:56:32.007Z,1003.71
2022-10-10T09:57:31.289Z,1003.66
2022-10-10T09:58:31.279Z,1003.65
2022-10-10T09:59:31.230Z,1003.67
2022-10-10T10:00:32.046Z,1003.66
2022-10-10T10:01:31.260Z,1003.60
2022-10-10T10:02:31.210Z,1003.59
2022-10-10T10:03:31.229Z,1003.64
2022-10-10T10:04:31.199Z,1003.65
2022-10-10T10:05:31.927Z,1003.57
2022-10-10T10:06:31.146Z,1003.65
2022-10-10T10:07:31.166Z,1003.74
2022-10-10T10:08:31.114Z,1003.79
2022-10-10T10:09:31.129Z,1003.65
2022-10-10T10:10:31.928Z,1003.59
2022-10-10T10:11:31.085Z,1003.56
2022-10-10T10:12:31.084Z,1003.79
2022-10-10T10:13:31.066Z,1003.64
2022-10-10T10:14:31.059Z,1003.68
2022-10-10T10:15:31.060Z,1003.76
2022-10-10T10:16:31.036Z,1003.60
2022-10-10T10:17:31.004Z,1003.48
2022-10-10T10:18:30.988Z,1003.55
2022-10-10T10:19:31.007Z,1003.63
2022-10-10T10:20:30.969Z,1003.58
2022-10-10T10:21:31.155Z,1003.74
2022-10-10T10:22:32.547Z,1003.59
2022-10-10T10:23:30.928Z,1003.68
2022-10-10T10:24:30.939Z,1003.70
2022-10-10T10:25:31.733Z,1003.71
2022-10-10T10:26:30.894Z,1003.79
2022-10-10T10:27:30.897Z,1003.76
2022-10-10T10:28:30.972Z,1003.73
2022-10-10T10:29:30.901Z,1003.70
2022-10-10T10:30:30.863Z,1003.75
2022-10-10T10:31:30.841Z,1003.80
2022-10-10T10:32:30.839Z,1003.80
2022-10-10T10:33:30.857Z,1003.87
2022-10-10T10:34:30.841Z,1003.75
2022-10-10T10:35:30.808Z,1003.84
2022-10-10T10:36:30.782Z,1003.88
2022-10-10T10:37:30.789Z,1003.81
2022-10-10T10:38:31.032Z,1003.80
2022-10-10T10:39:31.071Z,1003.75
2022-10-10T10:40:30.740Z,1004.03
2022-10-10T10:41:30.956Z,1003.84
2022-10-10T10:42:30.701Z,1003.85
2022-10-10T10:43:30.663Z,1003.89
2022-10-10T10:44:30.666Z,1003.81
2022-10-10T10:45:30.710Z,1003.86
2022-10-10T10:46:30.702Z,1003.81
2022-10-10T10:47:30.636Z,1003.83
2022-10-10T10:48:30.619Z,1003.87
2022-10-10T10:49:30.593Z,1003.92
2022-10-10T10:50:30.588Z,1003.97
2022-10-10T10:51:30.659Z,1004.02
2022-10-10T10:52:32.338Z,1003.91
2022-10-10T10:53:35.165Z,1003.92
2022-10-10T10:54:30.761Z,1003.88
2022-10-10T10:55:32.901Z,1003.93
2022-10-10T10:56:30.539Z,1003.84
2022-10-10T10:57:40.496Z,1003.75
2022-10-10T10:59:05.764Z,1003.79
2022-10-10T11:00:20.548Z,1003.87
2022-10-10T11:01:54.676Z,1003.86
2022-10-10T11:02:54.152Z,1003.75
2022-10-10T11:05:20.936Z,1003.71
2022-10-10T11:05:36.737Z,1003.79
2022-10-10T11:05:45.414Z,1003.87
2022-10-10T11:06:49.384Z,1003.83
2022-10-10T11:07:40.089Z,1003.73
2022-10-10T11:08:40.076Z,1003.79
2022-10-10T11:09:55.145Z,1003.84
2022-10-10T11:10:55.180Z,1003.74
2022-10-10T11:11:39.571Z,1003.73
2022-10-10T11:12:39.754Z,1003.82
2022-10-10T11:13:39.761Z,1003.78
2022-10-10T11:14:39.736Z,1003.77
2022-10-10T11:16:06.081Z,1003.88
2022-10-10T11:16:54.943Z,1003.91
2022-10-10T11:17:39.689Z,1003.84
2022-10-10T11:18:39.678Z,1003.74
2022-10-10T11:19:40.362Z,1003.80
2022-10-10T11:20:39.938Z,1003.80
2022-10-10T11:21:40.284Z,1003.89
2022-10-10T11:22:40.572Z,1003.89
2022-10-10T11:23:39.562Z,1003.79
2022-10-10T11:24:40.348Z,1003.77
2022-10-10T11:25:40.294Z,1003.89
2022-10-10T11:26:39.578Z,1003.72
2022-10-10T11:27:40.516Z,1003.68
2022-10-10T11:28:39.639Z,1003.85
2022-10-10T11:29:39.526Z,1003.78
2022-10-10T11:30:39.518Z,1003.88
2022-10-10T11:31:39.466Z,1003.80
2022-10-10T11:32:39.484Z,1003.90
2022-10-10T11:33:39.440Z,1003.77
2022-10-10T11:34:39.438Z,1003.75
2022-10-10T11:35:39.420Z,1003.85
2022-10-10T11:36:39.430Z,1003.76
2022-10-10T11:37:39.516Z,1003.68
2022-10-10T11:38:39.402Z,1003.79
2022-10-10T11:39:39.406Z,1003.84
2022-10-10T11:40:39.373Z,1003.89
2022-10-10T11:41:39.622Z,1003.81
2022-10-10T11:42:39.395Z,1003.83
2022-10-10T11:43:39.343Z,1003.78
2022-10-10T11:44:39.398Z,1003.71
2022-10-10T11:45:39.307Z,1003.84
2022-10-10T11:46:39.308Z,1003.77
2022-10-10T11:47:39.279Z,1003.86
2022-10-10T11:48:39.263Z,1003.89
2022-10-10T11:49:39.301Z,1003.76
2022-10-10T11:50:40.043Z,1003.92
2022-10-10T11:51:39.270Z,1003.94
2022-10-10T11:52:39.204Z,1003.79
2022-10-10T11:53:39.194Z,1003.95
2022-10-10T11:54:39.179Z,1003.86
2022-10-10T11:55:39.161Z,1003.80
2022-10-10T11:56:39.187Z,1003.88
2022-10-10T11:57:40.169Z,1003.83
2022-10-10T11:58:39.136Z,1003.78
2022-10-10T11:59:39.242Z,1003.81
2022-10-10T12:00:39.199Z,1003.83
2022-10-10T12:01:39.105Z,1003.91
2022-10-10T12:02:39.111Z,1003.86
2022-10-10T12:03:40.114Z,1003.84
2022-10-10T12:04:39.063Z,1003.77
2022-10-10T12:05:39.051Z,1003.84
2022-10-10T12:06:39.280Z,1003.92